createdAt,value
2019-05-16T00:00:52.313Z,6.63
2019-05-16T00:04:59.006Z,5.13
2019-05-16T00:09:04.615Z,4.10
2019-05-16T00:13:09.136Z,6.70
2019-05-16T00:17:13.671Z,3.63
2019-05-16T00:21:18.224Z,3.50
2019-05-16T00:25:22.545Z,3.50
2019-05-16T00:29:27.704Z,1.90
2019-05-16T00:33:32.470Z,3.90
2019-05-16T00:37:38.977Z,8.27
2019-05-16T00:41:43.179Z,3.50
2019-05-16T00:45:48.645Z,4.87
2019-05-16T00:49:53.339Z,6.13
2019-05-16T00:53:58.849Z,4.87
2019-05-16T00:58:04.156Z,4.50
2019-05-16T01:02:09.010Z,3.20
2019-05-16T01:06:19.163Z,3.70
2019-05-16T01:10:19.596Z,3.20
2019-05-16T01:14:23.860Z,2.90
2019-05-16T01:18:28.693Z,4.20
2019-05-16T01:22:33.347Z,4.43
2019-05-16T01:26:39.159Z,3.30
2019-05-16T01:30:44.116Z,3.30
2019-05-16T01:34:48.650Z,6.03
2019-05-16T01:38:53.364Z,6.13
2019-05-16T01:42:57.917Z,4.30
2019-05-16T01:47:02.371Z,3.60
2019-05-16T01:51:07.738Z,4.20
2019-05-16T01:55:12.383Z,3.67
2019-05-16T01:59:18.134Z,3.00
2019-05-16T02:03:22.977Z,4.47
2019-05-16T02:07:28.371Z,5.47
2019-05-16T02:11:32.822Z,4.43
2019-05-16T02:15:38.302Z,3.87
2019-05-16T02:19:43.251Z,3.93
2019-05-16T02:23:49.029Z,5.33
2019-05-16T02:27:54.403Z,6.50
2019-05-16T02:32:01.966Z,6.97
2019-05-16T02:36:05.324Z,3.73
2019-05-16T02:40:11.947Z,6.17
2019-05-16T02:44:16.741Z,3.90
2019-05-16T02:48:21.757Z,3.20
2019-05-16T02:52:26.686Z,4.67
2019-05-16T02:56:31.854Z,3.37
2019-05-16T03:00:41.943Z,3.27
2019-05-16T03:04:44.701Z,4.85
2019-05-16T03:08:50.769Z,2.63
2019-05-16T03:13:00.585Z,5.43
2019-05-16T03:21:11.246Z,5.33
2019-05-16T03:25:16.045Z,5.15
2019-05-16T03:29:21.809Z,4.80
2019-05-16T03:33:35.080Z,6.60
2019-05-16T03:37:48.353Z,3.83
2019-05-16T03:41:41.463Z,4.93
2019-05-16T03:45:45.481Z,4.47
2019-05-16T03:49:51.745Z,4.13
2019-05-16T03:53:56.724Z,3.37
2019-05-16T03:58:01.669Z,5.67
2019-05-16T04:02:06.355Z,4.03
2019-05-16T04:06:11.775Z,3.93
2019-05-16T04:10:16.957Z,4.97
2019-05-16T04:14:21.688Z,5.50
2019-05-16T04:18:26.380Z,5.60
2019-05-16T04:22:32.735Z,5.60
2019-05-16T04:26:37.352Z,6.27
2019-05-16T04:30:41.956Z,4.13
2019-05-16T04:34:46.665Z,5.33
2019-05-16T04:38:51.485Z,8.17
2019-05-16T04:42:56.336Z,4.67
2019-05-16T04:47:01.737Z,5.93
2019-05-16T04:51:06.412Z,6.63
2019-05-16T04:55:12.156Z,6.60
2019-05-16T04:59:17.139Z,6.23
2019-05-16T05:03:23.246Z,4.97
2019-05-16T05:07:30.980Z,4.97
2019-05-16T05:11:34.151Z,5.20
2019-05-16T05:15:40.130Z,2.97
2019-05-16T05:19:44.948Z,7.00
2019-05-16T05:23:50.828Z,3.03
2019-05-16T05:27:55.702Z,4.20
2019-05-16T05:32:04.521Z,3.97
2019-05-16T05:36:06.571Z,1.80
2019-05-16T05:40:11.629Z,6.20
2019-05-16T05:44:16.147Z,2.60
2019-05-16T05:48:21.875Z,4.53
2019-05-16T05:52:26.798Z,3.10
2019-05-16T05:56:31.357Z,5.60
2019-05-16T06:00:35.914Z,2.87
2019-05-16T06:04:40.436Z,5.37
2019-05-16T06:08:44.970Z,3.93
2019-05-16T06:12:50.031Z,4.67
2019-05-16T06:16:54.853Z,1.93
2019-05-16T06:21:00.449Z,8.60
2019-05-16T06:25:05.663Z,3.00
2019-05-16T06:29:10.546Z,3.63
2019-05-16T06:33:15.172Z,5.97
2019-05-16T06:37:20.502Z,3.03
2019-05-16T06:41:25.189Z,2.77
2019-05-16T06:45:31.979Z,2.57
2019-05-16T06:49:36.076Z,7.03
2019-05-16T06:53:40.622Z,5.67
2019-05-16T06:57:45.249Z,5.00
2019-05-16T07:01:50.128Z,3.23
2019-05-16T07:05:54.983Z,2.93
2019-05-16T07:10:04.228Z,6.97
2019-05-16T07:14:05.899Z,3.07
2019-05-16T07:18:13.041Z,4.83
2019-05-16T07:22:16.698Z,4.27
2019-05-16T07:26:21.508Z,2.27
2019-05-16T07:30:26.147Z,4.53
2019-05-16T07:34:31.280Z,3.17
2019-05-16T07:38:36.023Z,5.23
2019-05-16T07:42:40.571Z,2.77
2019-05-16T07:46:45.229Z,6.90
2019-05-16T07:50:50.149Z,3.43
2019-05-16T07:54:54.982Z,4.07
2019-05-16T07:59:00.905Z,3.37
2019-05-16T08:03:05.707Z,4.93
2019-05-16T08:07:10.754Z,2.93
2019-05-16T08:11:15.435Z,4.10
2019-05-16T08:15:21.273Z,2.17
2019-05-16T08:19:26.173Z,3.80
2019-05-16T08:23:30.931Z,2.90
2019-05-16T08:27:35.711Z,4.33
2019-05-16T08:31:43.077Z,3.33
2019-05-16T08:35:46.570Z,4.03
2019-05-16T08:39:51.435Z,6.53
2019-05-16T08:43:56.039Z,6.07
2019-05-16T08:48:00.610Z,6.03
2019-05-16T08:52:05.264Z,4.53
2019-05-16T08:56:13.072Z,4.70
2019-05-16T09:00:17.159Z,3.90
2019-05-16T09:04:24.393Z,5.27
2019-05-16T09:08:27.959Z,3.90
2019-05-16T09:12:32.487Z,4.70
2019-05-16T09:16:37.281Z,5.87
2019-05-16T09:20:42.961Z,5.33
2019-05-16T09:24:48.281Z,5.43
2019-05-16T09:28:53.107Z,6.13
2019-05-16T09:32:58.778Z,5.73
2019-05-16T09:37:03.675Z,5.33
2019-05-16T09:41:08.439Z,2.97
2019-05-16T09:45:13.609Z,4.47
2019-05-16T09:49:24.236Z,3.67
2019-05-16T09:53:24.477Z,3.90
2019-05-16T09:57:29.000Z,5.13
2019-05-16T10:01:33.593Z,3.43
2019-05-16T10:05:38.120Z,3.37
2019-05-16T10:09:47.054Z,5.07
2019-05-16T10:13:48.889Z,4.40
2019-05-16T10:17:53.424Z,5.23
2019-05-16T10:22:00.241Z,6.30
2019-05-16T10:26:04.345Z,4.27
2019-05-16T10:30:09.523Z,4.50
2019-05-16T10:34:14.137Z,5.70
2019-05-16T10:38:18.689Z,4.90
2019-05-16T10:42:28.518Z,5.03
2019-05-16T10:46:29.633Z,3.13
2019-05-16T10:50:36.808Z,6.50
2019-05-16T10:54:54.127Z,6.43
2019-05-16T10:59:10.604Z,3.20
2019-05-16T11:02:53.387Z,4.43
2019-05-16T11:06:58.256Z,5.60
2019-05-16T11:11:02.836Z,4.43
2019-05-16T11:15:11.290Z,6.07
2019-05-16T11:19:21.325Z,4.73
2019-05-16T11:23:23.656Z,4.00
2019-05-16T11:27:28.147Z,12.13
2019-05-16T11:31:32.769Z,6.57
2019-05-16T11:35:38.092Z,7.50
2019-05-16T11:39:42.908Z,7.00
2019-05-16T11:43:47.548Z,6.37
2019-05-16T11:47:52.154Z,7.13
2019-05-16T11:51:57.891Z,4.50
2019-05-16T11:56:02.756Z,8.63
2019-05-16T12:00:09.174Z,5.50
2019-05-16T12:04:13.768Z,6.17
2019-05-16T12:08:18.455Z,8.27
2019-05-16T12:12:23.035Z,5.13
2019-05-16T12:16:27.756Z,4.60
2019-05-16T12:20:32.438Z,7.00
2019-05-16T12:24:40.733Z,5.30
2019-05-16T12:28:43.307Z,7.03
2019-05-16T12:32:47.828Z,4.63
2019-05-16T12:36:52.389Z,8.60
2019-05-16T12:40:57.002Z,8.20
2019-05-16T12:45:01.524Z,10.47
2019-05-16T12:49:07.024Z,8.00
2019-05-16T12:53:11.704Z,7.93
2019-05-16T12:57:18.246Z,10.83
2019-05-16T13:01:30.567Z,10.37
2019-05-16T13:05:29.319Z,7.73
2019-05-16T13:09:34.007Z,10.33
2019-05-16T13:13:38.599Z,10.50
2019-05-16T13:17:43.185Z,8.97
2019-05-16T13:21:47.814Z,12.30
2019-05-16T13:25:52.421Z,9.80
2019-05-16T13:29:58.125Z,8.40
2019-05-16T13:34:02.899Z,10.27
2019-05-16T13:38:08.382Z,12.50
2019-05-16T13:42:13.017Z,7.20
2019-05-16T13:46:17.673Z,8.40
2019-05-16T13:50:22.281Z,8.03
2019-05-16T13:54:27.033Z,6.43
2019-05-16T13:58:31.806Z,6.97
2019-05-16T14:02:37.923Z,8.73
2019-05-16T14:06:42.532Z,10.43
2019-05-16T14:10:48.783Z,5.63
2019-05-16T14:14:53.393Z,6.60
2019-05-16T14:18:58.008Z,8.30
2019-05-16T14:23:02.639Z,10.27
2019-05-16T14:27:07.196Z,6.40
2019-05-16T14:31:11.854Z,7.07
2019-05-16T14:35:16.639Z,6.90
2019-05-16T14:39:21.324Z,4.60
2019-05-16T14:43:27.193Z,5.67
2019-05-16T14:47:31.960Z,6.03
2019-05-16T14:51:38.456Z,7.20
2019-05-16T14:55:42.835Z,9.40
2019-05-16T14:59:47.498Z,5.27
2019-05-16T15:03:52.231Z,7.67
2019-05-16T15:07:57.005Z,5.57
2019-05-16T15:12:01.668Z,6.33
2019-05-16T15:16:07.654Z,7.30
2019-05-16T15:20:13.950Z,6.43
2019-05-16T15:24:18.714Z,4.90
2019-05-16T15:28:26.902Z,5.43
2019-05-16T15:32:31.840Z,5.13
2019-05-16T15:36:37.281Z,5.33
2019-05-16T15:40:41.999Z,6.60
2019-05-16T15:44:46.599Z,7.40
2019-05-16T15:48:51.466Z,5.57
2019-05-16T15:52:59.047Z,5.33
2019-05-16T15:57:02.886Z,6.53
2019-05-16T16:01:07.690Z,5.40
2019-05-16T16:05:12.564Z,7.57
2019-05-16T16:09:17.440Z,5.63
2019-05-16T16:13:22.110Z,7.50
2019-05-16T16:17:29.189Z,6.37
2019-05-16T16:21:32.991Z,8.80
2019-05-16T16:25:37.657Z,6.63
2019-05-16T16:29:42.361Z,9.90
2019-05-16T16:33:47.079Z,8.47
2019-05-16T16:37:51.691Z,9.47
2019-05-16T16:41:56.912Z,10.93
2019-05-16T16:46:08.801Z,7.57
2019-05-16T16:50:08.636Z,9.83
2019-05-16T16:54:13.245Z,7.90
2019-05-16T16:58:17.847Z,6.43
2019-05-16T17:02:22.492Z,7.03
2019-05-16T17:06:27.216Z,5.17
2019-05-16T17:10:31.821Z,5.73
2019-05-16T17:14:37.027Z,9.20
2019-05-16T17:18:41.916Z,5.13
2019-05-16T17:22:46.817Z,6.03
2019-05-16T17:26:51.557Z,8.27
2019-05-16T17:30:56.785Z,5.43
2019-05-16T17:35:01.532Z,6.40
2019-05-16T17:39:06.414Z,7.43
2019-05-16T17:43:10.399Z,5.50
2019-05-16T17:47:17.177Z,8.20
2019-05-16T17:51:21.356Z,5.93
2019-05-16T17:55:26.999Z,10.60
2019-05-16T17:59:31.608Z,6.10
2019-05-16T18:03:37.242Z,8.33
2019-05-16T18:07:42.148Z,5.53
2019-05-16T18:11:46.853Z,6.83
2019-05-16T18:15:51.689Z,12.40
2019-05-16T18:19:57.172Z,5.23
2019-05-16T18:24:02.034Z,5.97
2019-05-16T18:28:07.849Z,5.43
2019-05-16T18:32:12.824Z,5.33
2019-05-16T18:36:17.301Z,8.07
2019-05-16T18:40:22.169Z,7.00
2019-05-16T18:44:27.270Z,6.00
2019-05-16T18:48:31.953Z,7.83
2019-05-16T18:52:37.566Z,6.17
2019-05-16T18:56:42.331Z,8.33
2019-05-16T19:00:46.892Z,7.10
2019-05-16T19:04:51.454Z,8.30
2019-05-16T19:08:56.368Z,11.87
2019-05-16T19:13:02.475Z,8.73
2019-05-16T19:17:20.267Z,11.03
2019-05-16T19:21:13.460Z,11.60
2019-05-16T19:25:18.543Z,12.03
2019-05-16T19:29:26.293Z,12.37
2019-05-16T19:33:30.296Z,14.13
2019-05-16T19:37:38.011Z,12.93
2019-05-16T19:41:41.374Z,13.00
2019-05-16T19:45:46.510Z,14.80
2019-05-16T19:49:51.258Z,16.37
2019-05-16T19:53:56.576Z,18.50
2019-05-16T19:58:01.359Z,20.93
2019-05-16T20:02:07.648Z,21.50
2019-05-16T20:06:12.501Z,21.50
2019-05-16T20:10:18.110Z,20.43
2019-05-16T20:14:22.762Z,19.93
2019-05-16T20:18:27.617Z,24.13
2019-05-16T20:22:32.449Z,25.53
2019-05-16T20:26:37.387Z,27.03
2019-05-16T20:30:42.298Z,25.43
2019-05-16T20:34:47.066Z,26.07
2019-05-16T20:38:51.697Z,27.90
2019-05-16T20:42:59.505Z,23.40
2019-05-16T20:47:04.344Z,30.52
2019-05-16T20:51:09.003Z,30.00
2019-05-16T20:55:14.587Z,28.70
2019-05-16T20:59:19.209Z,32.17
2019-05-16T21:03:23.768Z,29.73
2019-05-16T21:07:28.301Z,30.80
2019-05-16T21:11:32.918Z,36.93
2019-05-16T21:15:37.548Z,35.23
2019-05-16T21:19:42.084Z,35.63
2019-05-16T21:23:47.048Z,33.77
2019-05-16T21:27:51.800Z,32.83
2019-05-16T21:31:56.630Z,33.30
2019-05-16T21:36:01.400Z,32.70
2019-05-16T21:40:08.054Z,38.47
2019-05-16T21:44:13.555Z,37.23
2019-05-16T21:48:19.417Z,37.40
2019-05-16T21:52:24.286Z,41.13
2019-05-16T21:56:28.930Z,43.47
2019-05-16T22:00:43.793Z,39.97
2019-05-16T22:04:48.456Z,44.37
2019-05-16T22:08:53.051Z,41.40
2019-05-16T22:12:57.910Z,42.43
2019-05-16T22:17:02.643Z,40.77
2019-05-16T22:21:07.728Z,41.73
2019-05-16T22:25:12.727Z,39.00
2019-05-16T22:29:17.244Z,40.17
2019-05-16T22:33:21.798Z,41.97
2019-05-16T22:37:26.628Z,39.03
2019-05-16T22:41:31.335Z,39.30
2019-05-16T22:45:37.349Z,41.43
2019-05-16T22:49:42.535Z,37.47
2019-05-16T22:53:47.096Z,40.03
2019-05-16T22:57:51.743Z,38.87
2019-05-16T23:01:56.933Z,38.70
2019-05-16T23:06:01.797Z,39.33
2019-05-16T23:10:07.465Z,43.37
2019-05-16T23:14:12.356Z,39.90
2019-05-16T23:18:17.316Z,41.60
2019-05-16T23:22:22.032Z,41.70
2019-05-16T23:26:26.965Z,37.60
2019-05-16T23:30:31.731Z,38.70
2019-05-16T23:34:37.305Z,41.33
2019-05-16T23:38:42.051Z,40.37
2019-05-16T23:42:46.738Z,44.13
2019-05-16T23:46:51.282Z,41.10
2019-05-16T23:50:56.960Z,43.63
2019-05-16T23:55:01.942Z,40.90
2019-05-16T23:59:06.736Z,40.20
